ETEB

Ansbach Army Heliport

Germany
METAR ETEB 242356Z AUTO 00000KT 9999 CLR 11/10 A2995 RMK AO2 SLP150 T01070095 10157 20106 57011 $
Observed Flight Rules
Apr-24 @ 23:56 UTC (33 minutes ago) Visual Flight Rules
Visibility Clouds
10,000+ meters
  • Clear skies
Temperatures Readings
Current 11°C / 52°F
Dewpoint 10°C / 50°F
Humidity 94%
Altimeter 29.95" Hg
Pressure 1015 hPa
Elevation 467
METAR ETEB 242356Z AUTO 00000KT 9999 CLR 11/10 A2995 RMK AO2 SLP150 T01070095 10157 20106 57011 $
Observed Flight Rules
Apr-24 @ 23:56 UTC
(33 minutes ago)
VFR
Clouds
  • Clear skies
Temperature Dewpoint
11°C / 52°F 10°C / 50°F
Humidity Altimeter Pressure
94% 29.95" Hg 1015 hPa